createdAt,value
2018-05-18T00:00:50.632Z,87.8
2018-05-18T00:01:52.022Z,88.1
2018-05-18T00:02:53.416Z,87.6
2018-05-18T00:03:54.809Z,88.5
2018-05-18T00:04:56.192Z,88.3
2018-05-18T00:05:57.585Z,87.5
2018-05-18T00:06:58.974Z,87.6
2018-05-18T00:08:00.362Z,88.1
2018-05-18T00:09:01.752Z,88.7
2018-05-18T00:10:03.207Z,88.6
2018-05-18T00:11:04.633Z,88.2
2018-05-18T00:12:06.017Z,88.2
2018-05-18T00:13:07.400Z,88.3
2018-05-18T00:14:08.790Z,88.2
2018-05-18T00:15:10.175Z,88.6
2018-05-18T00:16:11.565Z,88.1
2018-05-18T00:17:12.957Z,88.5
2018-05-18T00:18:14.350Z,88.9
2018-05-18T00:19:15.742Z,89.5
2018-05-18T00:20:17.133Z,89.3
2018-05-18T00:21:18.521Z,89.5
2018-05-18T00:22:19.914Z,89.0
2018-05-18T00:23:21.304Z,89.3
2018-05-18T00:24:22.686Z,89.0
2018-05-18T00:25:24.077Z,88.9
2018-05-18T00:26:25.470Z,89.0
2018-05-18T00:27:26.859Z,89.0
2018-05-18T00:28:28.254Z,88.9
2018-05-18T00:29:29.643Z,89.5
2018-05-18T00:30:31.032Z,89.0
2018-05-18T00:31:32.419Z,89.1
2018-05-18T00:32:33.808Z,89.5
2018-05-18T00:33:35.196Z,89.0
2018-05-18T00:34:36.590Z,89.0
2018-05-18T00:35:37.972Z,89.1
2018-05-18T00:36:39.370Z,89.4
2018-05-18T00:37:40.755Z,89.6
2018-05-18T00:38:42.140Z,89.3
2018-05-18T00:39:43.531Z,89.1
2018-05-18T00:40:44.921Z,89.4
2018-05-18T00:41:46.313Z,89.6
2018-05-18T00:42:47.703Z,89.3
2018-05-18T00:43:49.089Z,89.2
2018-05-18T00:44:50.476Z,89.7
2018-05-18T00:45:51.882Z,89.6
2018-05-18T00:46:53.271Z,89.7
2018-05-18T00:47:54.660Z,89.8
2018-05-18T00:48:56.049Z,89.7
2018-05-18T00:49:57.437Z,89.6
2018-05-18T00:50:58.821Z,90.1
2018-05-18T00:52:00.211Z,89.8
2018-05-18T00:53:01.600Z,90.1
2018-05-18T00:54:02.993Z,89.7
2018-05-18T00:55:04.382Z,89.7
2018-05-18T00:56:05.785Z,89.8
2018-05-18T00:57:07.168Z,90.2
2018-05-18T00:58:08.588Z,89.8
2018-05-18T00:59:10.046Z,89.5
2018-05-18T01:00:11.440Z,90.1
2018-05-18T01:01:12.827Z,89.8
2018-05-18T01:02:14.212Z,90.1
2018-05-18T01:03:15.604Z,89.8
2018-05-18T01:04:16.990Z,90.0
2018-05-18T01:05:18.378Z,89.8
2018-05-18T01:06:19.767Z,89.8
2018-05-18T01:07:21.153Z,90.6
2018-05-18T01:08:22.545Z,90.3
2018-05-18T01:09:23.927Z,90.2
2018-05-18T01:10:25.315Z,90.4
2018-05-18T01:11:26.705Z,90.5
2018-05-18T01:12:28.094Z,89.8
2018-05-18T01:13:29.480Z,90.8
2018-05-18T01:14:30.867Z,90.4
2018-05-18T01:15:32.257Z,90.8
2018-05-18T01:16:33.645Z,91.0
2018-05-18T01:17:35.041Z,90.5
2018-05-18T01:18:36.438Z,90.7
2018-05-18T01:19:37.824Z,90.7
2018-05-18T01:20:39.217Z,90.7
2018-05-18T01:21:40.608Z,90.6
2018-05-18T01:22:41.996Z,90.6
2018-05-18T01:23:43.387Z,90.9
2018-05-18T01:24:44.779Z,91.1
2018-05-18T01:25:46.181Z,91.3
2018-05-18T01:26:47.569Z,91.6
2018-05-18T01:27:48.962Z,91.3
2018-05-18T01:28:50.348Z,91.1
2018-05-18T01:29:51.735Z,91.1
2018-05-18T01:30:53.143Z,92.0
2018-05-18T01:31:54.519Z,91.1
2018-05-18T01:32:55.920Z,91.9
2018-05-18T01:33:57.318Z,91.6
2018-05-18T01:34:58.706Z,91.4
2018-05-18T01:36:00.097Z,91.2
2018-05-18T01:37:01.485Z,91.3
2018-05-18T01:38:02.871Z,91.6
2018-05-18T01:39:04.262Z,91.2
2018-05-18T01:40:05.648Z,90.7
2018-05-18T01:41:07.037Z,91.2
2018-05-18T01:42:08.429Z,91.2
2018-05-18T01:43:09.818Z,91.7
2018-05-18T01:44:11.206Z,91.2
2018-05-18T01:45:12.594Z,91.2
2018-05-18T01:46:13.986Z,90.6
2018-05-18T01:47:15.415Z,91.1
2018-05-18T01:48:16.819Z,91.6
2018-05-18T01:49:18.206Z,91.2
2018-05-18T01:50:19.596Z,91.1
2018-05-18T01:51:20.984Z,91.2
2018-05-18T01:52:22.374Z,91.2
2018-05-18T01:53:23.769Z,91.3
2018-05-18T01:54:25.193Z,91.2
2018-05-18T01:55:26.540Z,91.2
2018-05-18T01:56:27.937Z,90.8
2018-05-18T01:57:29.322Z,90.5
2018-05-18T01:58:30.717Z,90.7
2018-05-18T01:59:32.104Z,90.5
2018-05-18T02:00:33.510Z,90.3
2018-05-18T02:01:34.897Z,90.6
2018-05-18T02:02:36.284Z,90.6
2018-05-18T02:03:37.671Z,90.5
2018-05-18T02:04:39.063Z,90.4
2018-05-18T02:05:40.531Z,90.5
2018-05-18T02:06:41.840Z,90.6
2018-05-18T02:07:43.239Z,90.6
2018-05-18T02:08:44.622Z,90.0
2018-05-18T02:09:46.014Z,89.9
2018-05-18T02:10:47.398Z,89.9
2018-05-18T02:11:48.786Z,89.8
2018-05-18T02:12:50.180Z,90.0
2018-05-18T02:13:51.574Z,90.0
2018-05-18T02:14:52.982Z,90.4
2018-05-18T02:15:54.361Z,90.0
2018-05-18T02:16:55.748Z,90.3
2018-05-18T02:17:57.135Z,90.3
2018-05-18T02:18:58.523Z,90.0
2018-05-18T02:19:59.911Z,90.6
2018-05-18T02:21:01.300Z,90.0
2018-05-18T02:22:02.687Z,90.0
2018-05-18T02:23:04.074Z,89.7
2018-05-18T02:24:05.460Z,89.9
2018-05-18T02:25:06.849Z,89.7
2018-05-18T02:26:08.235Z,89.6
2018-05-18T02:27:09.627Z,89.4
2018-05-18T02:28:11.018Z,89.6
2018-05-18T02:29:12.436Z,89.3
2018-05-18T02:30:13.825Z,88.9
2018-05-18T02:31:15.211Z,89.4
2018-05-18T02:32:16.607Z,89.8
2018-05-18T02:33:18.000Z,89.8
2018-05-18T02:34:19.422Z,89.6
2018-05-18T02:35:20.855Z,89.2
2018-05-18T02:36:22.302Z,89.1
2018-05-18T02:37:23.683Z,89.1
2018-05-18T02:38:25.065Z,88.7
2018-05-18T02:39:26.457Z,88.9
2018-05-18T02:40:27.844Z,89.0
2018-05-18T02:41:29.235Z,88.9
2018-05-18T02:42:30.628Z,89.0
2018-05-18T02:43:32.021Z,88.8
2018-05-18T02:44:33.408Z,88.8
2018-05-18T02:45:34.792Z,88.3
2018-05-18T02:46:36.185Z,88.3
2018-05-18T02:47:37.570Z,87.8
2018-05-18T02:48:38.961Z,88.0
2018-05-18T02:49:40.352Z,87.5
2018-05-18T02:50:41.742Z,87.8
2018-05-18T02:51:43.128Z,87.8
2018-05-18T02:52:44.520Z,88.6
2018-05-18T02:53:45.907Z,87.8
2018-05-18T02:54:47.293Z,87.9
2018-05-18T02:55:48.684Z,87.8
2018-05-18T02:56:50.073Z,87.8
2018-05-18T02:57:51.459Z,88.2
2018-05-18T02:58:52.848Z,88.0
2018-05-18T02:59:54.237Z,88.2
2018-05-18T03:00:55.628Z,88.4
2018-05-18T03:01:57.014Z,88.5
2018-05-18T03:02:58.402Z,88.8
2018-05-18T03:03:59.794Z,89.0
2018-05-18T03:05:01.188Z,88.7
2018-05-18T03:06:02.572Z,89.0
2018-05-18T03:07:03.958Z,88.2
2018-05-18T03:08:05.356Z,88.3
2018-05-18T03:09:06.738Z,88.2
2018-05-18T03:10:08.127Z,88.0
2018-05-18T03:11:09.517Z,88.1
2018-05-18T03:12:10.941Z,88.1
2018-05-18T03:13:12.332Z,87.7
2018-05-18T03:14:13.718Z,87.9
2018-05-18T03:15:15.108Z,88.0
2018-05-18T03:16:16.499Z,87.5
2018-05-18T03:17:17.888Z,87.7
2018-05-18T03:18:19.285Z,87.8
2018-05-18T03:19:20.679Z,87.2
2018-05-18T03:20:22.066Z,86.9
2018-05-18T03:21:23.458Z,87.4
2018-05-18T03:22:24.844Z,86.9
2018-05-18T03:23:26.295Z,87.0
2018-05-18T03:24:27.676Z,86.9
2018-05-18T03:25:29.081Z,87.3
2018-05-18T03:26:30.468Z,87.0
2018-05-18T03:27:31.858Z,87.2
2018-05-18T03:28:33.247Z,87.2
2018-05-18T03:29:34.633Z,87.2
2018-05-18T03:30:36.024Z,87.3
2018-05-18T03:31:37.415Z,87.0
2018-05-18T03:32:38.804Z,86.6
2018-05-18T03:33:40.193Z,87.0
2018-05-18T03:34:41.592Z,87.2
2018-05-18T03:35:42.972Z,86.9
2018-05-18T03:36:44.372Z,86.8
2018-05-18T03:37:45.762Z,87.1
2018-05-18T03:38:47.150Z,87.4
2018-05-18T03:39:48.541Z,86.4
2018-05-18T03:40:49.931Z,86.5
2018-05-18T03:41:51.325Z,86.7
2018-05-18T03:42:52.738Z,86.5
2018-05-18T03:43:54.128Z,86.9
2018-05-18T03:44:55.515Z,86.6
2018-05-18T03:45:56.907Z,86.4
2018-05-18T03:46:58.298Z,86.4
2018-05-18T03:47:59.693Z,86.7
2018-05-18T03:49:01.092Z,86.9
2018-05-18T03:50:02.484Z,87.0
2018-05-18T03:51:03.869Z,87.5
2018-05-18T03:52:05.259Z,87.1
2018-05-18T03:53:06.648Z,86.9
2018-05-18T03:54:08.044Z,87.6
2018-05-18T03:55:09.431Z,87.1
2018-05-18T03:56:10.818Z,86.9
2018-05-18T03:57:12.211Z,87.4
2018-05-18T03:58:13.599Z,86.7
2018-05-18T03:59:14.986Z,86.5
2018-05-18T04:00:16.375Z,86.4
2018-05-18T04:01:17.793Z,86.6
2018-05-18T04:02:19.162Z,86.5
2018-05-18T04:03:20.549Z,86.6
2018-05-18T04:04:21.939Z,86.3
2018-05-18T04:05:23.332Z,86.7
2018-05-18T04:06:24.720Z,86.6
2018-05-18T04:07:26.113Z,86.7
2018-05-18T04:08:27.512Z,86.8
2018-05-18T04:09:28.905Z,86.2
2018-05-18T04:10:30.294Z,85.4
2018-05-18T04:11:31.684Z,85.4
2018-05-18T04:12:33.097Z,86.2
2018-05-18T04:13:34.580Z,85.5
2018-05-18T04:14:35.972Z,85.4
2018-05-18T04:15:37.364Z,85.4
2018-05-18T04:16:38.760Z,85.4
2018-05-18T04:17:40.148Z,85.2
2018-05-18T04:18:41.537Z,85.3
2018-05-18T04:19:42.930Z,85.7
2018-05-18T04:20:44.321Z,85.6
2018-05-18T04:21:45.711Z,86.1
2018-05-18T04:22:47.134Z,85.9
2018-05-18T04:23:48.500Z,85.9
2018-05-18T04:24:49.897Z,86.5
2018-05-18T04:25:51.285Z,86.5
2018-05-18T04:26:52.698Z,85.3
2018-05-18T04:27:54.091Z,86.2
2018-05-18T04:28:55.497Z,86.0
2018-05-18T04:29:56.889Z,86.2
2018-05-18T04:30:58.286Z,86.3
2018-05-18T04:31:59.673Z,86.2
2018-05-18T04:33:01.072Z,85.7
2018-05-18T04:34:02.467Z,85.8
2018-05-18T04:35:03.867Z,85.6
2018-05-18T04:36:05.253Z,85.0
2018-05-18T04:37:06.732Z,85.0
2018-05-18T04:38:08.352Z,84.5
2018-05-18T04:39:09.748Z,84.1
2018-05-18T04:40:11.140Z,84.4
2018-05-18T04:41:12.595Z,84.6
2018-05-18T04:42:13.991Z,84.6
2018-05-18T04:43:15.388Z,84.5
2018-05-18T04:44:16.874Z,84.1
2018-05-18T04:45:18.171Z,84.9
2018-05-18T04:46:19.566Z,84.5
2018-05-18T04:47:20.984Z,83.8
2018-05-18T04:48:22.374Z,83.1
2018-05-18T04:49:23.766Z,82.9
2018-05-18T04:50:25.155Z,83.2
2018-05-18T04:51:26.561Z,83.0
2018-05-18T04:52:27.966Z,83.8
2018-05-18T04:53:29.356Z,83.9
2018-05-18T04:54:30.748Z,84.8
2018-05-18T04:55:32.138Z,84.2
2018-05-18T04:56:33.534Z,82.8
2018-05-18T04:57:34.927Z,82.7
2018-05-18T04:58:36.321Z,81.8
2018-05-18T04:59:37.714Z,80.6
2018-05-18T05:00:39.172Z,80.6
2018-05-18T05:01:40.595Z,81.3
2018-05-18T05:02:41.986Z,81.3
2018-05-18T05:03:43.375Z,80.7
2018-05-18T05:04:44.766Z,80.6
2018-05-18T05:05:46.168Z,80.9
2018-05-18T05:06:47.566Z,81.2
2018-05-18T05:07:48.990Z,81.4
2018-05-18T05:08:50.377Z,81.4
2018-05-18T05:09:51.771Z,81.5
2018-05-18T05:10:53.159Z,81.4
2018-05-18T05:11:54.554Z,80.8
2018-05-18T05:12:55.987Z,81.3
2018-05-18T05:13:57.379Z,81.7
2018-05-18T05:14:58.767Z,81.2
2018-05-18T05:16:00.177Z,81.4
2018-05-18T05:17:01.576Z,81.3
2018-05-18T05:18:02.966Z,80.8
2018-05-18T05:19:04.362Z,80.7
2018-05-18T05:20:05.756Z,80.6
2018-05-18T05:21:07.166Z,80.4
2018-05-18T05:22:08.554Z,80.0
2018-05-18T05:23:09.949Z,80.5
2018-05-18T05:24:11.347Z,80.2
2018-05-18T05:25:12.754Z,78.7
2018-05-18T05:26:14.151Z,78.9
2018-05-18T05:27:15.545Z,78.9
2018-05-18T05:28:16.935Z,79.5
2018-05-18T05:29:18.326Z,79.7
2018-05-18T05:30:19.722Z,80.0
2018-05-18T05:31:21.122Z,79.9
2018-05-18T05:32:22.518Z,79.5
2018-05-18T05:33:23.913Z,79.9
2018-05-18T05:34:25.305Z,78.8
2018-05-18T05:35:26.701Z,78.6
2018-05-18T05:36:28.093Z,78.0
2018-05-18T05:37:29.487Z,79.0
2018-05-18T05:38:30.881Z,78.8
2018-05-18T05:39:32.290Z,79.2
2018-05-18T05:40:33.676Z,79.9
2018-05-18T05:41:35.075Z,79.1
2018-05-18T05:42:36.488Z,78.4
2018-05-18T05:43:37.917Z,79.7
2018-05-18T05:44:39.307Z,79.8
2018-05-18T05:45:40.700Z,80.1
2018-05-18T05:46:42.097Z,79.7
2018-05-18T05:47:43.488Z,79.9
2018-05-18T05:48:45.023Z,80.0
2018-05-18T05:49:46.458Z,79.4
2018-05-18T05:50:47.853Z,78.7
2018-05-18T05:51:49.243Z,79.3
2018-05-18T05:52:50.636Z,79.1
2018-05-18T05:53:52.029Z,79.3
2018-05-18T05:54:53.425Z,78.8
2018-05-18T05:55:54.818Z,78.4
2018-05-18T05:56:56.217Z,77.8
2018-05-18T05:57:57.610Z,77.6
2018-05-18T05:58:59.001Z,77.7
2018-05-18T06:00:00.412Z,78.1
2018-05-18T06:01:01.805Z,78.2
2018-05-18T06:02:03.199Z,77.4
2018-05-18T06:03:04.591Z,77.5
2018-05-18T06:04:05.988Z,76.4
2018-05-18T06:05:07.397Z,76.7
2018-05-18T06:06:08.789Z,77.1
2018-05-18T06:07:10.183Z,76.6
2018-05-18T06:08:11.574Z,76.5
2018-05-18T06:09:12.974Z,76.2
2018-05-18T06:10:14.370Z,76.3
2018-05-18T06:11:15.765Z,76.3
2018-05-18T06:12:17.249Z,77.2
2018-05-18T06:13:18.552Z,77.0
2018-05-18T06:14:19.945Z,77.1
2018-05-18T06:15:21.348Z,77.3
2018-05-18T06:16:22.746Z,76.9
2018-05-18T06:17:24.138Z,77.5
2018-05-18T06:18:25.533Z,76.3
2018-05-18T06:19:26.979Z,76.0
2018-05-18T06:20:28.320Z,75.6
2018-05-18T06:21:29.716Z,75.0
2018-05-18T06:22:31.116Z,74.5
2018-05-18T06:23:32.515Z,75.0
2018-05-18T06:24:33.906Z,75.6
2018-05-18T06:25:35.303Z,74.7
2018-05-18T06:26:36.693Z,74.7
2018-05-18T06:27:38.089Z,74.8
2018-05-18T06:28:39.505Z,73.7
2018-05-18T06:29:40.875Z,73.3
2018-05-18T06:30:42.272Z,73.8
2018-05-18T06:31:43.670Z,73.9
2018-05-18T06:32:45.067Z,73.6
2018-05-18T06:33:46.467Z,73.4
2018-05-18T06:34:47.889Z,73.4
2018-05-18T06:35:49.258Z,72.5
2018-05-18T06:36:50.689Z,73.3
2018-05-18T06:37:52.111Z,72.5
2018-05-18T06:38:53.510Z,72.3
2018-05-18T06:39:54.910Z,72.2
2018-05-18T06:40:56.305Z,72.5
2018-05-18T06:41:57.700Z,72.1
2018-05-18T06:42:59.095Z,71.6
2018-05-18T06:44:00.487Z,72.8
2018-05-18T06:45:01.902Z,74.0
2018-05-18T06:46:03.297Z,73.6
2018-05-18T06:47:04.693Z,73.3
2018-05-18T06:48:06.093Z,73.9
2018-05-18T06:49:07.486Z,73.3
2018-05-18T06:50:08.883Z,73.0
2018-05-18T06:51:10.278Z,73.6
2018-05-18T06:52:11.680Z,72.8
2018-05-18T06:53:13.078Z,72.5
2018-05-18T06:54:14.475Z,73.4
2018-05-18T06:55:15.863Z,73.5
2018-05-18T06:56:17.256Z,74.1
2018-05-18T06:57:18.713Z,73.8
2018-05-18T06:58:20.185Z,72.9
2018-05-18T06:59:21.592Z,73.0
2018-05-18T07:00:22.992Z,73.1
2018-05-18T07:01:24.393Z,73.6
2018-05-18T07:02:25.785Z,73.8
2018-05-18T07:03:27.195Z,73.0
2018-05-18T07:04:28.590Z,72.5
2018-05-18T07:05:29.988Z,72.8
2018-05-18T07:06:31.383Z,73.3
2018-05-18T07:07:32.856Z,73.3
2018-05-18T07:08:34.260Z,74.0
2018-05-18T07:09:35.653Z,73.9
2018-05-18T07:10:37.080Z,74.2
2018-05-18T07:11:38.416Z,73.3
2018-05-18T07:12:39.822Z,73.7
2018-05-18T07:13:41.227Z,73.4
2018-05-18T07:14:42.615Z,72.5
2018-05-18T07:15:44.014Z,72.7
2018-05-18T07:16:45.405Z,73.1
2018-05-18T07:17:46.889Z,73.3
2018-05-18T07:18:48.292Z,72.9
2018-05-18T07:19:49.687Z,72.9
2018-05-18T07:20:51.161Z,72.9
2018-05-18T07:21:52.556Z,72.1
2018-05-18T07:22:54.023Z,72.8
2018-05-18T07:23:55.416Z,73.4
2018-05-18T07:24:56.828Z,73.4
2018-05-18T07:25:58.224Z,72.8
2018-05-18T07:26:59.620Z,72.7
2018-05-18T07:28:01.016Z,72.5
2018-05-18T07:29:02.457Z,71.9
2018-05-18T07:30:03.934Z,71.9
2018-05-18T07:31:05.254Z,71.0
2018-05-18T07:32:06.649Z,71.0
2018-05-18T07:33:08.084Z,71.2
2018-05-18T07:34:09.526Z,71.3
2018-05-18T07:35:10.945Z,71.4
2018-05-18T07:36:12.422Z,70.7
2018-05-18T07:37:13.770Z,70.6
2018-05-18T07:38:15.138Z,69.9
2018-05-18T07:39:16.566Z,69.9
2018-05-18T07:40:17.977Z,70.7
2018-05-18T07:41:19.395Z,70.3
2018-05-18T07:42:20.797Z,70.8
2018-05-18T07:43:22.208Z,71.2
2018-05-18T07:44:23.608Z,71.2
2018-05-18T07:45:25.011Z,70.7
2018-05-18T07:46:26.414Z,69.6
2018-05-18T07:47:27.811Z,68.7
2018-05-18T07:48:29.201Z,68.8
2018-05-18T07:49:30.597Z,67.8
2018-05-18T07:50:31.994Z,68.6
2018-05-18T07:51:33.422Z,68.8
2018-05-18T07:52:34.816Z,69.1
2018-05-18T07:53:36.240Z,69.2
2018-05-18T07:54:37.617Z,69.4
2018-05-18T07:55:39.052Z,69.0
2018-05-18T07:56:40.448Z,69.0
2018-05-18T07:57:41.846Z,68.9
2018-05-18T07:58:43.268Z,68.6
2018-05-18T07:59:44.666Z,68.9
2018-05-18T08:00:46.061Z,69.1
2018-05-18T08:01:47.462Z,69.7
2018-05-18T08:02:48.924Z,69.0
2018-05-18T08:03:50.326Z,68.6
2018-05-18T08:04:51.732Z,68.7
2018-05-18T08:05:53.147Z,67.6
2018-05-18T08:06:54.541Z,67.9
2018-05-18T08:07:55.992Z,68.6
2018-05-18T08:08:57.337Z,68.7
2018-05-18T08:09:58.732Z,69.0
2018-05-18T08:11:00.163Z,69.1
2018-05-18T08:12:01.579Z,69.0
2018-05-18T08:13:02.980Z,68.7
2018-05-18T08:14:04.375Z,67.7
2018-05-18T08:15:05.791Z,67.1
2018-05-18T08:16:07.179Z,67.8
2018-05-18T08:17:08.573Z,67.0
2018-05-18T08:18:09.974Z,67.7
2018-05-18T08:19:11.378Z,68.6
2018-05-18T08:20:12.774Z,68.3
2018-05-18T08:21:14.170Z,67.6
2018-05-18T08:22:15.783Z,67.9
2018-05-18T08:23:17.176Z,66.5
2018-05-18T08:24:18.579Z,66.9
2018-05-18T08:25:19.972Z,66.7
2018-05-18T08:26:21.386Z,66.1
2018-05-18T08:27:22.790Z,65.8
2018-05-18T08:28:24.178Z,66.0
2018-05-18T08:29:25.618Z,66.6
2018-05-18T08:30:27.020Z,67.7
2018-05-18T08:31:28.420Z,67.6
2018-05-18T08:32:29.813Z,67.7
2018-05-18T08:33:31.211Z,67.5
2018-05-18T08:34:32.612Z,66.0
2018-05-18T08:35:34.008Z,66.3
2018-05-18T08:36:35.407Z,66.3
2018-05-18T08:37:36.800Z,66.7
2018-05-18T08:38:38.209Z,67.0
2018-05-18T08:39:39.605Z,67.0
2018-05-18T08:40:41.017Z,67.5
2018-05-18T08:41:42.417Z,66.9
2018-05-18T08:42:43.813Z,67.0
2018-05-18T08:43:45.207Z,66.8
2018-05-18T08:44:46.606Z,65.9
2018-05-18T08:45:48.010Z,65.9
2018-05-18T08:46:49.405Z,65.4
2018-05-18T08:47:50.799Z,66.2
2018-05-18T08:48:52.200Z,65.8
2018-05-18T08:49:53.596Z,64.8
2018-05-18T08:50:54.991Z,65.0
2018-05-18T08:51:56.393Z,67.0
2018-05-18T08:52:57.788Z,65.9
2018-05-18T08:53:59.182Z,64.7
2018-05-18T08:55:00.650Z,64.8
2018-05-18T08:56:02.046Z,65.1
2018-05-18T08:57:03.438Z,64.7
2018-05-18T08:58:04.896Z,65.0
2018-05-18T08:59:06.386Z,64.9
2018-05-18T09:00:07.783Z,64.0
2018-05-18T09:01:09.192Z,64.4
2018-05-18T09:02:10.578Z,64.9
2018-05-18T09:03:11.976Z,65.4
2018-05-18T09:04:13.377Z,63.5
2018-05-18T09:05:14.774Z,62.1
2018-05-18T09:06:16.172Z,62.3
2018-05-18T09:07:17.565Z,61.0
2018-05-18T09:08:18.959Z,61.0
2018-05-18T09:09:20.362Z,61.2
2018-05-18T09:10:21.756Z,60.6
2018-05-18T09:11:23.154Z,61.5
2018-05-18T09:12:24.550Z,60.8
2018-05-18T09:13:25.949Z,60.6
2018-05-18T09:14:27.350Z,60.5
2018-05-18T09:15:28.746Z,60.7
2018-05-18T09:16:30.148Z,60.2
2018-05-18T09:17:31.542Z,60.6
2018-05-18T09:18:32.940Z,61.7
2018-05-18T09:19:34.335Z,58.9
2018-05-18T09:20:35.751Z,59.5
2018-05-18T09:21:37.129Z,59.9
2018-05-18T09:22:38.549Z,58.7
2018-05-18T09:23:39.949Z,59.9
2018-05-18T09:24:41.357Z,60.0
2018-05-18T09:25:42.750Z,59.8
2018-05-18T09:26:44.145Z,59.8
2018-05-18T09:27:45.543Z,60.4
2018-05-18T09:28:46.938Z,60.7
2018-05-18T09:29:48.334Z,60.5
2018-05-18T09:30:49.735Z,60.0
2018-05-18T09:31:51.133Z,59.1
2018-05-18T09:32:52.568Z,59.7
2018-05-18T09:33:53.987Z,59.3
2018-05-18T09:34:55.358Z,58.6
2018-05-18T09:35:56.763Z,58.7
2018-05-18T09:36:58.162Z,60.0
2018-05-18T09:37:59.559Z,58.6
2018-05-18T09:39:00.952Z,58.8
2018-05-18T09:40:02.350Z,56.7
2018-05-18T09:41:03.745Z,57.1
2018-05-18T09:42:05.139Z,59.8
2018-05-18T09:43:06.537Z,59.1
2018-05-18T09:44:07.936Z,59.8
2018-05-18T09:45:09.457Z,58.1
2018-05-18T09:46:10.786Z,57.6
2018-05-18T09:47:12.210Z,57.0
2018-05-18T09:48:13.606Z,56.1
2018-05-18T09:49:15.007Z,56.9
2018-05-18T09:50:16.402Z,58.1
2018-05-18T09:51:17.801Z,56.8
2018-05-18T09:52:19.199Z,56.8
2018-05-18T09:53:20.600Z,56.2
2018-05-18T09:54:22.067Z,54.1
2018-05-18T09:55:23.553Z,54.0
2018-05-18T09:56:24.798Z,54.7
2018-05-18T09:57:26.195Z,55.2
2018-05-18T09:58:27.593Z,55.0
2018-05-18T09:59:28.988Z,52.4
2018-05-18T10:00:30.389Z,53.2
2018-05-18T10:01:31.785Z,54.5
2018-05-18T10:02:33.186Z,53.7
2018-05-18T10:03:34.588Z,55.4
2018-05-18T10:04:35.987Z,56.9
2018-05-18T10:05:37.390Z,57.0
2018-05-18T10:06:38.787Z,56.7
2018-05-18T10:07:40.188Z,56.7
2018-05-18T10:08:41.592Z,57.8
2018-05-18T10:09:42.986Z,58.6
2018-05-18T10:10:44.387Z,57.5
2018-05-18T10:11:45.788Z,57.6
2018-05-18T10:12:47.201Z,58.0
2018-05-18T10:13:48.597Z,57.0
2018-05-18T10:14:49.997Z,57.6
2018-05-18T10:15:51.409Z,57.9
2018-05-18T10:16:52.811Z,57.6
2018-05-18T10:17:54.208Z,55.5
2018-05-18T10:18:55.615Z,55.4
2018-05-18T10:19:57.012Z,55.9
2018-05-18T10:20:58.412Z,55.2
2018-05-18T10:21:59.817Z,55.3
2018-05-18T10:23:01.210Z,54.1
2018-05-18T10:24:02.611Z,54.4
2018-05-18T10:25:04.008Z,54.9
2018-05-18T10:26:05.408Z,54.0
2018-05-18T10:27:06.842Z,53.1
2018-05-18T10:28:08.208Z,54.8
2018-05-18T10:29:09.610Z,53.0
2018-05-18T10:30:11.010Z,52.2
2018-05-18T10:31:12.410Z,53.2
2018-05-18T10:32:13.919Z,51.6
2018-05-18T10:33:15.348Z,50.4
2018-05-18T10:34:16.754Z,50.5
2018-05-18T10:35:18.157Z,51.2
2018-05-18T10:36:19.558Z,52.4
2018-05-18T10:37:20.961Z,52.9
2018-05-18T10:38:22.353Z,52.1
2018-05-18T10:39:23.752Z,52.0
2018-05-18T10:40:25.158Z,53.4
2018-05-18T10:41:26.552Z,52.1
2018-05-18T10:42:27.949Z,52.6
2018-05-18T10:43:29.409Z,52.1
2018-05-18T10:44:30.809Z,52.2
2018-05-18T10:45:32.430Z,52.6
2018-05-18T10:46:33.836Z,52.5
2018-05-18T10:47:35.231Z,53.9
2018-05-18T10:48:36.632Z,54.4
2018-05-18T10:49:38.162Z,51.4
2018-05-18T10:50:39.619Z,50.9
2018-05-18T10:51:41.012Z,49.1
2018-05-18T10:52:42.416Z,49.2
2018-05-18T10:53:43.821Z,48.2
2018-05-18T10:54:45.218Z,48.7
2018-05-18T10:55:46.616Z,48.5
2018-05-18T10:56:48.017Z,48.4
2018-05-18T10:57:49.422Z,48.8
2018-05-18T10:58:50.828Z,49.0
2018-05-18T10:59:52.240Z,48.7
2018-05-18T11:00:53.649Z,48.4
2018-05-18T11:01:55.050Z,48.8
2018-05-18T11:02:56.543Z,48.5
2018-05-18T11:03:57.986Z,49.3
2018-05-18T11:04:59.338Z,48.9
2018-05-18T11:06:00.741Z,49.6
2018-05-18T11:07:02.170Z,50.7
2018-05-18T11:08:03.558Z,49.9
2018-05-18T11:09:04.971Z,48.9
2018-05-18T11:10:06.435Z,49.6
2018-05-18T11:11:07.854Z,50.8
2018-05-18T11:12:09.287Z,50.3
2018-05-18T11:13:11.064Z,49.6
2018-05-18T11:14:12.500Z,49.8
2018-05-18T11:15:13.879Z,49.3
2018-05-18T11:16:15.279Z,49.7
2018-05-18T11:17:16.749Z,51.1
2018-05-18T11:18:18.344Z,51.5
2018-05-18T11:19:19.741Z,50.3
2018-05-18T11:20:21.163Z,49.3
2018-05-18T11:21:22.583Z,48.8
2018-05-18T11:22:24.003Z,47.3
2018-05-18T11:23:25.408Z,47.4
2018-05-18T11:24:26.815Z,47.8
2018-05-18T11:25:28.224Z,45.6
2018-05-18T11:26:30.221Z,45.4
2018-05-18T11:27:31.628Z,44.9
2018-05-18T11:28:33.032Z,44.0
2018-05-18T11:29:34.434Z,45.8
2018-05-18T11:30:35.841Z,46.4
2018-05-18T11:31:37.260Z,45.9
2018-05-18T11:32:38.676Z,44.5
2018-05-18T11:33:40.067Z,43.8
2018-05-18T11:34:41.509Z,45.6
2018-05-18T11:35:42.972Z,45.1
2018-05-18T11:36:44.570Z,43.6
2018-05-18T11:37:45.977Z,44.1
2018-05-18T11:38:47.387Z,43.6
2018-05-18T11:39:48.826Z,44.1
2018-05-18T11:40:50.236Z,43.7
2018-05-18T11:41:51.650Z,43.0
2018-05-18T11:42:53.072Z,44.0
2018-05-18T11:43:54.478Z,43.2
2018-05-18T11:44:55.887Z,44.2
2018-05-18T11:45:57.307Z,44.6
2018-05-18T11:46:58.713Z,44.8
2018-05-18T11:48:00.148Z,44.3
2018-05-18T11:49:01.525Z,44.3
2018-05-18T11:50:02.927Z,42.8
2018-05-18T11:51:04.333Z,41.2
2018-05-18T11:52:05.734Z,42.0
2018-05-18T11:53:07.187Z,41.8
2018-05-18T11:54:08.572Z,44.0
2018-05-18T11:55:09.979Z,43.5
2018-05-18T11:56:11.389Z,41.6
2018-05-18T11:57:12.791Z,42.5
2018-05-18T11:58:14.204Z,42.0
2018-05-18T11:59:15.609Z,41.8
2018-05-18T12:00:17.013Z,42.5
2018-05-18T12:01:18.415Z,44.8
2018-05-18T12:02:19.968Z,45.7
2018-05-18T12:03:21.344Z,45.9
2018-05-18T12:04:22.746Z,44.2
2018-05-18T12:05:24.149Z,43.7
2018-05-18T12:06:25.557Z,45.3
2018-05-18T12:07:26.975Z,43.8
2018-05-18T12:08:28.446Z,44.3
2018-05-18T12:09:29.788Z,44.6
2018-05-18T12:10:31.190Z,45.9
2018-05-18T12:11:32.591Z,45.0
2018-05-18T12:12:34.028Z,45.8
2018-05-18T12:13:35.430Z,47.0
2018-05-18T12:14:36.840Z,44.5
2018-05-18T12:15:38.246Z,44.0
2018-05-18T12:16:39.664Z,43.9
2018-05-18T12:17:41.074Z,44.4
2018-05-18T12:18:42.473Z,44.0
2018-05-18T12:19:43.875Z,44.0
2018-05-18T12:20:45.275Z,44.4
2018-05-18T12:21:46.700Z,44.1
2018-05-18T12:22:48.111Z,45.1
2018-05-18T12:23:49.522Z,45.1
2018-05-18T12:24:50.927Z,46.6
2018-05-18T12:25:52.330Z,45.2
2018-05-18T12:26:53.730Z,43.9
2018-05-18T12:27:55.136Z,43.2
2018-05-18T12:28:56.540Z,42.4
2018-05-18T12:29:57.948Z,42.8
2018-05-18T12:30:59.351Z,43.8
2018-05-18T12:32:00.752Z,45.5
2018-05-18T12:33:02.157Z,44.3
2018-05-18T12:34:03.553Z,44.9
2018-05-18T12:35:04.956Z,44.1
2018-05-18T12:36:06.359Z,44.6
2018-05-18T12:37:07.788Z,45.7
2018-05-18T12:38:09.218Z,44.0
2018-05-18T12:39:10.609Z,43.6
2018-05-18T12:40:12.009Z,42.5
2018-05-18T12:41:13.416Z,41.1
2018-05-18T12:42:15.768Z,42.2
2018-05-18T12:43:17.122Z,41.0
2018-05-18T12:44:18.527Z,40.4
2018-05-18T12:45:19.935Z,41.0
2018-05-18T12:46:21.334Z,42.2
2018-05-18T12:47:22.743Z,42.5
2018-05-18T12:48:24.163Z,41.1
2018-05-18T12:49:26.476Z,41.0
2018-05-18T12:50:27.883Z,41.7
2018-05-18T12:51:29.319Z,41.1
2018-05-18T12:52:30.695Z,41.3
2018-05-18T12:53:32.094Z,42.0
2018-05-18T12:54:33.497Z,41.8
2018-05-18T12:55:34.897Z,42.5
2018-05-18T12:56:36.301Z,41.3
2018-05-18T12:57:37.713Z,41.1
2018-05-18T12:58:39.118Z,39.2
2018-05-18T12:59:40.525Z,39.2
2018-05-18T13:00:41.931Z,38.1
2018-05-18T13:01:43.337Z,37.1
2018-05-18T13:02:44.741Z,38.6
2018-05-18T13:03:46.148Z,39.1
2018-05-18T13:04:47.557Z,39.1
2018-05-18T13:05:48.967Z,38.3
2018-05-18T13:06:50.380Z,37.8
2018-05-18T13:07:51.784Z,39.6
2018-05-18T13:08:53.234Z,39.4
2018-05-18T13:09:54.637Z,39.3
2018-05-18T13:10:56.044Z,40.0
2018-05-18T13:11:57.448Z,41.2
2018-05-18T13:12:58.852Z,41.9
2018-05-18T13:14:00.259Z,41.6
2018-05-18T13:15:01.660Z,39.5
2018-05-18T13:16:03.061Z,40.0
2018-05-18T13:17:04.466Z,39.9
2018-05-18T13:18:05.873Z,38.7
2018-05-18T13:19:07.285Z,38.4
2018-05-18T13:20:08.689Z,40.1
2018-05-18T13:21:10.093Z,39.7
2018-05-18T13:22:11.496Z,38.2
2018-05-18T13:23:12.898Z,38.9
2018-05-18T13:24:14.304Z,40.4
2018-05-18T13:25:15.707Z,41.1
2018-05-18T13:26:17.110Z,42.5
2018-05-18T13:27:18.512Z,43.7
2018-05-18T13:28:19.916Z,42.7
2018-05-18T13:29:21.318Z,42.3
2018-05-18T13:30:22.726Z,41.5
2018-05-18T13:31:24.132Z,41.7
2018-05-18T13:32:25.538Z,42.0
2018-05-18T13:33:27.013Z,39.4
2018-05-18T13:34:28.522Z,39.0
2018-05-18T13:35:29.921Z,40.5
2018-05-18T13:36:31.323Z,39.4
2018-05-18T13:37:32.728Z,39.4